Time;durP1;ratioP1;P1;durP2;ratioP2;P2;SDS_P1;SDS_P2;PMS_P1;PMS_P2;Temp;Humidity;BMP_temperature;BMP_pressure;BME280_temperature;BME280_humidity;BME280_pressure;Samples;Min_cycle;Max_cycle;Signal;HPM_P1;HPM_P2
2023/01/27 07:50:27;;;;;;;28.47;11.53;;;0.00;99.90;;;;;;7860501;23;20230;-82
2023/01/27 07:54:51;;;;;;;25.93;11.87;;;0.40;99.90;;;;;;7788244;28;20174;-83
2023/01/27 07:59:24;;;;;;;29.27;12.93;;;0.70;99.90;;;;;;7663376;29;20205;-83
2023/01/27 08:08:53;;;;;;;;;;;;;;;;;;;;;
2023/01/27 08:13:21;;;;;;;27.87;12.57;;;1.40;99.90;;;;;;7653810;29;20194;-83
2023/01/27 08:17:32;;;;;;;23.60;10.97;;;1.50;99.90;;;;;;7620929;29;20280;-82
2023/01/27 08:21:54;;;;;;;23.43;11.27;;;1.60;99.90;;;;;;7651181;29;20198;-83
2023/01/27 08:26:34;;;;;;;22.17;10.67;;;1.50;99.90;;;;;;7652203;29;20218;-83
2023/01/27 08:36:19;;;;;;;30.57;11.97;;;1.70;99.90;;;;;;7524652;29;20216;-84
2023/01/27 08:40:37;;;;;;;17.03;8.93;;;1.60;99.90;;;;;;7604394;29;20212;-84
2023/01/27 08:49:34;;;;;;;18.03;9.23;;;1.60;99.90;;;;;;7533083;29;20277;-82
2023/01/27 08:53:39;;;;;;;22.87;10.43;;;1.40;99.90;;;;;;7528491;29;20209;-82
2023/01/27 08:57:45;;;;;;;18.50;9.37;;;1.60;99.90;;;;;;7489119;29;20315;-83
2023/01/27 09:01:37;;;;;;;19.60;9.60;;;1.50;99.90;;;;;;7457753;29;20562;-82
2023/01/27 09:05:34;;;;;;;21.77;10.00;;;1.50;99.90;;;;;;7575712;29;20200;-82
2023/01/27 09:09:42;;;;;;;31.97;15.97;;;1.40;99.90;;;;;;7573266;29;20218;-82
2023/01/27 09:19:17;;;;;;;26.87;13.80;;;1.30;99.90;;;;;;7533537;29;20886;-84
2023/01/27 13:36:30;;;;;;;21.63;11.00;;;1.00;99.90;;;;;;8169849;23;20219;-83
2023/01/27 13:40:40;;;;;;;24.40;13.50;;;1.00;99.90;;;;;;7762145;28;20198;-84
2023/01/27 13:44:37;;;;;;;26.87;10.97;;;1.10;99.90;;;;;;7791828;28;20182;-90
2023/01/27 13:49:02;;;;;;;23.33;11.20;;;1.10;99.90;;;;;;7793380;28;20221;-82
2023/01/27 13:53:45;;;;;;;22.60;10.67;;;1.10;99.90;;;;;;7787922;28;20175;-82
2023/01/27 13:57:56;;;;;;;17.60;9.27;;;1.00;99.90;;;;;;7664463;29;20820;-83
2023/01/27 14:32:20;;;;;;;18.60;9.47;;;1.00;99.90;;;;;;8877358;22;20768;-83
2023/01/27 14:36:23;;;;;;;14.03;7.93;;;0.90;99.90;;;;;;7731914;28;20212;-83
2023/01/27 14:40:15;;;;;;;12.77;7.00;;;0.90;99.90;;;;;;7729444;28;20196;-83
2023/01/27 14:44:29;;;;;;;12.77;6.90;;;0.80;99.90;;;;;;7730930;28;20180;-83
2023/01/27 14:52:19;;;;;;;22.77;13.83;;;0.80;99.90;;;;;;8788496;23;20312;-83
2023/01/27 14:56:35;;;;;;;17.87;9.77;;;0.80;99.90;;;;;;7782194;28;20202;-82
2023/01/27 15:00:30;;;;;;;12.07;6.73;;;0.70;99.90;;;;;;7808350;28;20195;-83
2023/01/27 15:04:40;;;;;;;19.40;10.50;;;0.70;99.90;;;;;;7790665;28;20205;-83
2023/01/27 15:08:59;;;;;;;16.53;9.90;;;0.70;99.90;;;;;;7790253;28;20264;-83
2023/01/27 15:13:22;;;;;;;16.00;10.40;;;0.70;99.90;;;;;;7790495;28;20178;-83
2023/01/27 15:17:20;;;;;;;13.77;8.10;;;0.70;99.90;;;;;;7789995;28;20202;-84
2023/01/27 15:21:31;;;;;;;10.07;6.60;;;0.70;99.90;;;;;;7790070;28;20566;-83
2023/01/27 15:25:17;;;;;;;10.40;5.80;;;0.70;99.90;;;;;;7790556;28;20182;-84
2023/01/27 15:29:03;;;;;;;11.63;6.67;;;0.70;99.90;;;;;;7789540;28;20698;-84
2023/01/27 15:32:49;;;;;;;11.03;7.03;;;0.80;99.90;;;;;;7789419;28;20187;-84
2023/01/27 15:36:38;;;;;;;10.50;5.87;;;0.80;99.90;;;;;;7806767;28;20257;-84
2023/01/27 15:40:26;;;;;;;8.13;4.97;;;0.60;99.90;;;;;;7789329;28;20195;-84
2023/01/27 15:44:26;;;;;;;12.03;6.77;;;0.70;99.90;;;;;;7789490;28;20175;-84
2023/01/27 15:48:21;;;;;;;10.67;6.63;;;0.70;99.90;;;;;;7807335;28;20203;-85
2023/01/27 15:52:28;;;;;;;13.10;8.67;;;0.80;99.90;;;;;;7789550;28;20198;-84
2023/01/27 15:56:13;;;;;;;14.47;8.33;;;0.70;99.90;;;;;;7789185;28;20202;-84
2023/01/27 16:00:14;;;;;;;9.40;5.73;;;0.70;99.90;;;;;;7806819;28;20186;-84
2023/01/27 16:04:14;;;;;;;9.43;5.57;;;0.70;99.90;;;;;;7789186;28;20174;-84
2023/01/27 16:08:01;;;;;;;8.97;5.60;;;0.70;99.90;;;;;;7789229;28;20285;-84
2023/01/27 16:12:22;;;;;;;9.70;5.83;;;0.70;99.90;;;;;;7806787;28;20183;-84
2023/01/27 16:16:17;;;;;;;13.87;8.70;;;0.80;99.90;;;;;;7805661;28;20335;-84
2023/01/27 16:20:40;;;;;;;15.67;9.43;;;0.70;99.90;;;;;;7788256;28;20193;-84
2023/01/27 16:24:38;;;;;;;11.27;7.17;;;0.70;99.90;;;;;;7758113;28;20254;-84
2023/01/27 16:28:28;;;;;;;15.43;10.40;;;0.70;99.90;;;;;;7795749;28;20228;-83
2023/01/27 16:32:19;;;;;;;14.57;9.03;;;0.70;99.90;;;;;;7774346;28;20186;-84
2023/01/27 16:36:18;;;;;;;18.37;9.47;;;0.70;99.90;;;;;;7759611;28;20231;-84
2023/01/27 16:40:13;;;;;;;20.23;10.77;;;0.70;99.90;;;;;;7744815;28;20198;-84
2023/01/27 16:44:20;;;;;;;20.07;9.90;;;0.70;99.90;;;;;;7741993;28;20598;-84
2023/01/27 16:48:23;;;;;;;20.80;11.40;;;0.80;99.90;;;;;;7756907;28;20210;-84
2023/01/27 16:52:30;;;;;;;17.27;9.27;;;0.70;99.90;;;;;;7765654;28;20230;-84
2023/01/27 16:56:33;;;;;;;18.30;9.57;;;0.70;99.90;;;;;;7775251;28;20206;-85
2023/01/27 17:00:26;;;;;;;18.53;10.03;;;0.70;99.90;;;;;;7783422;28;20265;-84
2023/01/27 17:04:32;;;;;;;22.70;11.70;;;0.70;99.90;;;;;;7763460;28;20282;-85
2023/01/27 17:08:22;;;;;;;21.57;12.83;;;0.60;99.90;;;;;;7784077;28;20220;-84
2023/01/27 17:12:45;;;;;;;22.87;11.57;;;0.60;99.90;;;;;;7794995;28;20229;-86
2023/01/27 17:16:43;;;;;;;20.30;10.70;;;0.70;99.90;;;;;;7734070;28;20626;-82
2023/01/27 17:20:32;;;;;;;21.60;10.93;;;0.80;99.90;;;;;;7756118;28;20206;-90
2023/01/27 17:24:23;;;;;;;69.73;31.00;;;0.70;99.90;;;;;;7763777;28;20179;-84
2023/01/27 17:28:18;;;;;;;36.00;21.30;;;0.70;99.90;;;;;;7760991;28;20207;-84
2023/01/27 17:32:21;;;;;;;27.70;16.73;;;0.60;99.90;;;;;;7772929;28;20703;-85
2023/01/27 17:36:09;;;;;;;26.83;14.60;;;0.60;99.90;;;;;;7749141;28;20595;-84
2023/01/27 17:39:57;;;;;;;27.30;14.00;;;0.60;99.90;;;;;;7758353;28;20274;-84
2023/01/27 17:43:43;;;;;;;30.23;15.03;;;0.60;99.90;;;;;;7756316;28;20524;-85
2023/01/27 17:47:29;;;;;;;25.33;13.10;;;0.60;99.90;;;;;;7763497;28;20238;-84
2023/01/27 17:51:39;;;;;;;29.10;14.10;;;0.50;99.90;;;;;;7778692;28;20233;-84
2023/01/27 17:55:28;;;;;;;34.07;15.90;;;0.50;99.90;;;;;;7774766;28;20213;-84
2023/01/27 17:59:20;;;;;;;66.70;26.00;;;0.60;99.90;;;;;;7759135;28;20293;-85
2023/01/27 18:03:20;;;;;;;35.30;16.43;;;0.60;99.90;;;;;;7754677;28;20220;-84
2023/01/27 18:07:06;;;;;;;41.67;18.53;;;0.50;99.90;;;;;;7758948;28;20187;-84
2023/01/27 18:10:51;;;;;;;47.47;20.67;;;0.50;99.90;;;;;;7760226;28;20290;-84
2023/01/27 18:14:37;;;;;;;43.00;16.60;;;0.50;99.90;;;;;;7751552;28;20210;-83
2023/01/27 18:18:25;;;;;;;31.93;14.40;;;0.50;99.90;;;;;;7763331;28;20203;-86
2023/01/27 18:22:15;;;;;;;39.03;17.20;;;0.50;99.90;;;;;;7762072;28;20183;-84
2023/01/27 18:26:25;;;;;;;49.67;25.33;;;0.50;99.90;;;;;;7739579;28;20637;-83
2023/01/27 18:30:17;;;;;;;47.20;21.30;;;0.50;99.90;;;;;;7732172;28;20235;-84
2023/01/27 18:34:03;;;;;;;41.03;18.47;;;0.50;99.90;;;;;;7732437;28;20176;-83
2023/01/27 18:38:17;;;;;;;39.63;18.50;;;0.50;99.90;;;;;;7747722;28;20306;-84
2023/01/27 18:42:11;;;;;;;46.27;19.90;;;0.60;99.90;;;;;;7760749;28;20262;-84
2023/01/27 18:45:57;;;;;;;46.87;19.63;;;0.50;99.90;;;;;;7751136;28;20187;-85
2023/01/27 18:50:00;;;;;;;45.97;18.57;;;0.50;99.90;;;;;;7751992;28;20219;-83
2023/01/27 18:53:46;;;;;;;41.57;18.20;;;0.50;99.90;;;;;;7736876;28;20199;-83
2023/01/27 18:57:32;;;;;;;40.63;17.83;;;0.50;99.90;;;;;;7768251;28;20211;-83
2023/01/27 19:01:20;;;;;;;47.50;22.37;;;0.60;99.90;;;;;;7748238;28;20275;-84
2023/01/27 19:05:24;;;;;;;46.50;19.97;;;0.60;99.90;;;;;;7759053;28;20191;-83
2023/01/27 19:09:09;;;;;;;49.40;20.80;;;0.60;99.90;;;;;;7757723;28;20214;-83
2023/01/27 19:12:57;;;;;;;48.33;20.20;;;0.50;99.90;;;;;;7760573;28;20210;-84
2023/01/27 19:16:42;;;;;;;45.50;18.43;;;0.50;99.90;;;;;;7756340;28;20353;-82
2023/01/27 19:20:29;;;;;;;45.00;18.87;;;0.50;99.90;;;;;;7746489;28;20207;-82
2023/01/27 19:24:15;;;;;;;49.77;20.27;;;0.50;99.90;;;;;;7753157;28;20187;-83
2023/01/27 19:28:03;;;;;;;44.63;19.90;;;0.50;99.90;;;;;;7747812;28;20208;-83
2023/01/27 19:31:49;;;;;;;46.03;19.67;;;0.50;99.90;;;;;;7753448;28;20645;-82
2023/01/27 19:35:35;;;;;;;47.97;19.83;;;0.50;99.90;;;;;;7757799;28;20618;-82
2023/01/27 19:39:21;;;;;;;54.30;23.00;;;0.50;99.90;;;;;;7755894;28;20212;-84
2023/01/27 19:43:11;;;;;;;51.50;21.43;;;0.50;99.90;;;;;;7757500;28;20183;-84
2023/01/27 19:46:57;;;;;;;52.87;20.67;;;0.60;99.90;;;;;;7750451;28;20638;-83
2023/01/27 19:50:42;;;;;;;64.50;25.87;;;0.50;99.90;;;;;;7752231;28;20230;-83
2023/01/27 19:54:29;;;;;;;63.40;25.60;;;0.60;99.90;;;;;;7751680;28;20538;-83
2023/01/27 19:58:23;;;;;;;62.53;27.33;;;0.50;99.90;;;;;;7743630;28;20264;-83
2023/01/27 20:02:12;;;;;;;68.67;29.23;;;0.50;99.90;;;;;;7755640;28;20202;-83
2023/01/27 20:05:57;;;;;;;57.13;27.60;;;0.60;99.90;;;;;;7755371;28;20760;-84
2023/01/27 20:09:43;;;;;;;50.83;22.03;;;0.50;99.90;;;;;;7737766;28;20207;-83
2023/01/27 20:13:29;;;;;;;96.57;47.13;;;0.50;99.90;;;;;;7745191;28;20226;-84
2023/01/27 20:17:15;;;;;;;87.93;39.83;;;0.50;99.90;;;;;;7743390;28;20216;-85
2023/01/27 20:21:01;;;;;;;102.00;45.23;;;0.60;99.90;;;;;;7737639;28;20340;-82
2023/01/27 20:24:47;;;;;;;99.50;40.37;;;0.50;99.90;;;;;;7761387;28;20188;-83
2023/01/27 20:28:33;;;;;;;105.33;47.30;;;0.50;99.90;;;;;;7756669;28;20211;-83
2023/01/27 20:32:22;;;;;;;89.77;38.77;;;0.50;99.90;;;;;;7763095;28;20189;-83
2023/01/27 20:36:12;;;;;;;82.27;37.33;;;0.60;99.90;;;;;;7756377;28;20239;-83
2023/01/27 20:39:58;;;;;;;70.57;29.40;;;0.50;99.90;;;;;;7757911;28;20242;-83
2023/01/27 20:43:44;;;;;;;101.03;42.07;;;0.60;99.90;;;;;;7744102;28;20287;-84
2023/01/27 20:47:29;;;;;;;112.67;44.87;;;0.60;99.90;;;;;;7743029;28;20720;-83
2023/01/27 20:51:15;;;;;;;243.80;97.77;;;0.60;99.90;;;;;;7748804;28;20297;-83
